sensor_id;sensor_type;location;lat;lon;timestamp;pressure;altitude;pressure_sealevel;temperature;humidity
70843;BME280;58469;52.312;16.970;2024-01-10T00:01:36;102906.09;;;-11.91;86.67
70843;BME280;58469;52.312;16.970;2024-01-10T00:04:36;102895.22;;;-11.93;86.84
70843;BME280;58469;52.312;16.970;2024-01-10T00:07:36;102892.69;;;-11.93;85.71
70843;BME280;58469;52.312;16.970;2024-01-10T00:10:37;102888.47;;;-11.92;86.46
70843;BME280;58469;52.312;16.970;2024-01-10T00:13:37;102883.41;;;-11.91;86.22
70843;BME280;58469;52.312;16.970;2024-01-10T00:16:37;102880.06;;;-11.90;86.99
70843;BME280;58469;52.312;16.970;2024-01-10T00:19:37;102871.66;;;-11.92;85.86
70843;BME280;58469;52.312;16.970;2024-01-10T00:22:38;102869.16;;;-11.92;86.59
70843;BME280;58469;52.312;16.970;2024-01-10T00:25:38;102869.22;;;-11.98;86.88
70843;BME280;58469;52.312;16.970;2024-01-10T00:28:38;102862.50;;;-12.00;87.88
70843;BME280;58469;52.312;16.970;2024-01-10T00:31:39;102856.63;;;-11.98;89.25
70843;BME280;58469;52.312;16.970;2024-01-10T00:34:40;102861.66;;;-11.98;89.39
70843;BME280;58469;52.312;16.970;2024-01-10T00:37:40;102859.16;;;-12.02;89.32
70843;BME280;58469;52.312;16.970;2024-01-10T00:40:40;102851.59;;;-12.02;89.78
70843;BME280;58469;52.312;16.970;2024-01-10T00:43:41;102844.06;;;-12.02;88.94
70843;BME280;58469;52.312;16.970;2024-01-10T00:46:41;102850.81;;;-12.06;89.19
70843;BME280;58469;52.312;16.970;2024-01-10T00:49:41;102848.25;;;-12.03;89.18
70843;BME280;58469;52.312;16.970;2024-01-10T00:52:45;102852.41;;;-11.97;89.47
70843;BME280;58469;52.312;16.970;2024-01-10T00:55:46;102844.78;;;-11.90;88.57
70843;BME280;58469;52.312;16.970;2024-01-10T00:58:46;102840.53;;;-11.86;89.13
70843;BME280;58469;52.312;16.970;2024-01-10T01:01:46;102848.13;;;-11.88;88.82
70843;BME280;58469;52.312;16.970;2024-01-10T01:04:46;102853.16;;;-11.91;89.44
70843;BME280;58469;52.312;16.970;2024-01-10T01:07:47;102851.50;;;-11.92;89.56
70843;BME280;58469;52.312;16.970;2024-01-10T01:10:47;102851.50;;;-11.92;88.36
70843;BME280;58469;52.312;16.970;2024-01-10T01:13:48;102851.50;;;-11.92;89.21
70843;BME280;58469;52.312;16.970;2024-01-10T01:16:48;102858.25;;;-11.94;88.77
70843;BME280;58469;52.312;16.970;2024-01-10T01:19:48;102862.44;;;-11.94;87.80
70843;BME280;58469;52.312;16.970;2024-01-10T01:22:49;102867.47;;;-11.91;88.27
70843;BME280;58469;52.312;16.970;2024-01-10T01:25:49;102864.91;;;-11.88;87.42
70843;BME280;58469;52.312;16.970;2024-01-10T01:28:49;102860.69;;;-11.86;88.10
70843;BME280;58469;52.312;16.970;2024-01-10T01:31:50;102864.03;;;-11.84;87.96
70843;BME280;58469;52.312;16.970;2024-01-10T01:34:50;102859.81;;;-11.84;87.69
70843;BME280;58469;52.312;16.970;2024-01-10T01:37:50;102870.81;;;-11.88;87.22
70843;BME280;58469;52.312;16.970;2024-01-10T01:40:51;102865.81;;;-11.94;87.51
70843;BME280;58469;52.312;16.970;2024-01-10T01:43:51;102864.97;;;-11.96;87.77
70843;BME280;58469;52.312;16.970;2024-01-10T01:46:52;102857.44;;;-11.97;87.79
70843;BME280;58469;52.312;16.970;2024-01-10T01:49:52;102864.16;;;-11.99;87.29
70843;BME280;58469;52.312;16.970;2024-01-10T01:52:52;102860.00;;;-12.00;87.77
70843;BME280;58469;52.312;16.970;2024-01-10T01:55:53;102857.44;;;-11.97;87.13
70843;BME280;58469;52.312;16.970;2024-01-10T01:58:53;102856.63;;;-11.99;86.73
70843;BME280;58469;52.312;16.970;2024-01-10T02:01:55;102859.13;;;-11.96;88.14
70843;BME280;58469;52.312;16.970;2024-01-10T02:04:55;102847.38;;;-11.99;87.59
70843;BME280;58469;52.312;16.970;2024-01-10T02:07:55;102860.00;;;-12.00;87.12
70843;BME280;58469;52.312;16.970;2024-01-10T02:10:56;102869.25;;;-12.02;86.92
70843;BME280;58469;52.312;16.970;2024-01-10T02:13:57;102860.84;;;-12.00;86.46
70843;BME280;58469;52.312;16.970;2024-01-10T02:16:58;102843.25;;;-12.06;86.58
70843;BME280;58469;52.312;16.970;2024-01-10T02:20:11;102840.78;;;-12.10;85.80
70843;BME280;58469;52.312;16.970;2024-01-10T02:23:12;102835.78;;;-12.17;85.89
70843;BME280;58469;52.312;16.970;2024-01-10T02:26:13;102837.50;;;-12.17;86.86
70843;BME280;58469;52.312;16.970;2024-01-10T02:29:14;102845.88;;;-12.18;86.08
70843;BME280;58469;52.312;16.970;2024-01-10T02:32:14;102828.28;;;-12.21;86.75
70843;BME280;58469;52.312;16.970;2024-01-10T02:35:14;102824.09;;;-12.24;87.21
70843;BME280;58469;52.312;16.970;2024-01-10T02:38:15;102829.94;;;-12.20;87.21
70843;BME280;58469;52.312;16.970;2024-01-10T02:41:15;102829.94;;;-12.20;86.68
70843;BME280;58469;52.312;16.970;2024-01-10T02:44:15;102825.78;;;-12.21;86.13
70843;BME280;58469;52.312;16.970;2024-01-10T02:47:15;102823.28;;;-12.23;86.74
70843;BME280;58469;52.312;16.970;2024-01-10T02:50:16;102816.56;;;-12.22;87.10
70843;BME280;58469;52.312;16.970;2024-01-10T02:53:16;102824.09;;;-12.24;86.04
70843;BME280;58469;52.312;16.970;2024-01-10T02:56:16;102815.72;;;-12.23;86.80
70843;BME280;58469;52.312;16.970;2024-01-10T02:59:17;102817.34;;;-12.20;85.93
70843;BME280;58469;52.312;16.970;2024-01-10T03:02:17;102818.25;;;-12.24;85.83
70843;BME280;58469;52.312;16.970;2024-01-10T03:05:17;102819.13;;;-12.28;87.53
70843;BME280;58469;52.312;16.970;2024-01-10T03:08:17;102823.34;;;-12.32;87.31
70843;BME280;58469;52.312;16.970;2024-01-10T03:11:18;102820.09;;;-12.41;87.52
70843;BME280;58469;52.312;16.970;2024-01-10T03:14:18;102816.72;;;-12.40;86.94
70843;BME280;58469;52.312;16.970;2024-01-10T03:17:18;102812.50;;;-12.38;87.33
70843;BME280;58469;52.312;16.970;2024-01-10T03:20:18;102817.50;;;-12.37;88.14
70843;BME280;58469;52.312;16.970;2024-01-10T03:23:19;102814.97;;;-12.35;86.60
70843;BME280;58469;52.312;16.970;2024-01-10T03:26:19;102814.16;;;-12.37;86.88
70843;BME280;58469;52.312;16.970;2024-01-10T03:29:19;102805.78;;;-12.36;87.77
70843;BME280;58469;52.312;16.970;2024-01-10T03:32:19;102806.63;;;-12.40;87.58
70843;BME280;58469;52.312;16.970;2024-01-10T03:35:20;102816.66;;;-12.36;87.76
70843;BME280;58469;52.312;16.970;2024-01-10T03:38:20;102810.81;;;-12.38;86.88
70843;BME280;58469;52.312;16.970;2024-01-10T03:41:20;102807.50;;;-12.41;87.08
70843;BME280;58469;52.312;16.970;2024-01-10T03:44:21;102800.81;;;-12.45;87.43
70843;BME280;58469;52.312;16.970;2024-01-10T03:47:21;102807.47;;;-12.40;86.87
70843;BME280;58469;52.312;16.970;2024-01-10T03:50:21;102810.84;;;-12.39;87.07
70843;BME280;58469;52.312;16.970;2024-01-10T03:53:21;102805.78;;;-12.41;87.17
70843;BME280;58469;52.312;16.970;2024-01-10T03:56:22;102802.44;;;-12.38;87.27
70843;BME280;58469;52.312;16.970;2024-01-10T03:59:22;102798.94;;;-12.25;86.91
70843;BME280;58469;52.312;16.970;2024-01-10T04:02:22;102798.84;;;-12.16;87.31
70843;BME280;58469;52.312;16.970;2024-01-10T04:05:22;102794.56;;;-12.09;88.01
70843;BME280;58469;52.312;16.970;2024-01-10T04:08:23;102801.28;;;-12.08;86.68
70843;BME280;58469;52.312;16.970;2024-01-10T04:11:23;102798.81;;;-12.13;87.68
70843;BME280;58469;52.312;16.970;2024-01-10T04:14:23;102796.31;;;-12.16;87.30
70843;BME280;58469;52.312;16.970;2024-01-10T04:17:23;102789.56;;;-12.12;88.11
70843;BME280;58469;52.312;16.970;2024-01-10T04:20:24;102800.44;;;-12.09;87.23
70843;BME280;58469;52.312;16.970;2024-01-10T04:23:24;102798.78;;;-12.10;88.62
70843;BME280;58469;52.312;16.970;2024-01-10T04:26:24;102792.97;;;-12.13;88.49
70843;BME280;58469;52.312;16.970;2024-01-10T04:29:24;102785.38;;;-12.15;87.51
70843;BME280;58469;52.312;16.970;2024-01-10T04:32:25;102789.63;;;-12.17;87.73
70843;BME280;58469;52.312;16.970;2024-01-10T04:35:25;102788.81;;;-12.19;87.10
70843;BME280;58469;52.312;16.970;2024-01-10T04:38:26;102777.13;;;-12.26;87.24
70843;BME280;58469;52.312;16.970;2024-01-10T04:41:26;102783.03;;;-12.30;87.41
70843;BME280;58469;52.312;16.970;2024-01-10T04:44:26;102781.28;;;-12.25;87.45
70843;BME280;58469;52.312;16.970;2024-01-10T04:47:27;102787.19;;;-12.26;86.35
70843;BME280;58469;52.312;16.970;2024-01-10T04:50:27;102790.59;;;-12.27;86.95
70843;BME280;58469;52.312;16.970;2024-01-10T04:53:27;102785.53;;;-12.29;86.31
70843;BME280;58469;52.312;16.970;2024-01-10T04:56:27;102779.69;;;-12.29;85.99
70843;BME280;58469;52.312;16.970;2024-01-10T04:59:28;102791.41;;;-12.28;86.18
70843;BME280;58469;52.312;16.970;2024-01-10T05:02:28;102785.53;;;-12.27;86.12
70843;BME280;58469;52.312;16.970;2024-01-10T05:05:28;102780.50;;;-12.29;86.14
70843;BME280;58469;52.312;16.970;2024-01-10T05:08:29;102784.66;;;-12.25;86.89
70843;BME280;58469;52.312;16.970;2024-01-10T05:11:29;102782.16;;;-12.26;87.33
70843;BME280;58469;52.312;16.970;2024-01-10T05:14:29;102784.69;;;-12.26;87.24
70843;BME280;58469;52.312;16.970;2024-01-10T05:17:30;102777.13;;;-12.26;87.38
70843;BME280;58469;52.312;16.970;2024-01-10T05:20:30;102775.44;;;-12.24;87.19
70843;BME280;58469;52.312;16.970;2024-01-10T05:23:30;102779.59;;;-12.23;87.10
70843;BME280;58469;52.312;16.970;2024-01-10T05:26:30;102779.59;;;-12.23;86.40
70843;BME280;58469;52.312;16.970;2024-01-10T05:29:31;102776.25;;;-12.25;86.52
70843;BME280;58469;52.312;16.970;2024-01-10T05:32:31;102769.56;;;-12.25;86.91
70843;BME280;58469;52.312;16.970;2024-01-10T05:35:31;102764.44;;;-12.20;86.96
70843;BME280;58469;52.312;16.970;2024-01-10T05:38:31;102764.41;;;-12.15;87.24
70843;BME280;58469;52.312;16.970;2024-01-10T05:41:32;102764.44;;;-12.17;86.56
70843;BME280;58469;52.312;16.970;2024-01-10T05:44:32;102751.84;;;-12.17;86.38
70843;BME280;58469;52.312;16.970;2024-01-10T05:47:32;102735.94;;;-12.21;86.60
70843;BME280;58469;52.312;16.970;2024-01-10T05:50:32;102747.69;;;-12.21;86.50
70843;BME280;58469;52.312;16.970;2024-01-10T05:53:33;102753.53;;;-12.19;86.25
70843;BME280;58469;52.312;16.970;2024-01-10T05:56:33;102756.06;;;-12.19;87.03
70843;BME280;58469;52.312;16.970;2024-01-10T05:59:33;102758.59;;;-12.21;87.00
70843;BME280;58469;52.312;16.970;2024-01-10T06:02:33;102756.13;;;-12.27;87.51
70843;BME280;58469;52.312;16.970;2024-01-10T06:05:34;102759.50;;;-12.28;86.91
70843;BME280;58469;52.312;16.970;2024-01-10T06:08:34;102751.09;;;-12.27;86.97
70843;BME280;58469;52.312;16.970;2024-01-10T06:11:40;102752.81;;;-12.27;87.13
70843;BME280;58469;52.312;16.970;2024-01-10T06:14:40;102747.75;;;-12.27;87.29
70843;BME280;58469;52.312;16.970;2024-01-10T06:17:41;102756.13;;;-12.27;87.00
70843;BME280;58469;52.312;16.970;2024-01-10T06:20:41;102752.00;;;-12.34;87.44
70843;BME280;58469;52.312;16.970;2024-01-10T06:23:41;102756.22;;;-12.33;87.59
70843;BME280;58469;52.312;16.970;2024-01-10T06:26:42;102752.81;;;-12.30;86.65
70843;BME280;58469;52.312;16.970;2024-01-10T06:29:42;102745.28;;;-12.32;86.92
70843;BME280;58469;52.312;16.970;2024-01-10T06:32:42;102739.34;;;-12.26;87.14
70843;BME280;58469;52.312;16.970;2024-01-10T06:35:42;102746.13;;;-12.31;87.96
70843;BME280;58469;52.312;16.970;2024-01-10T06:38:43;102743.56;;;-12.28;87.33
70843;BME280;58469;52.312;16.970;2024-01-10T06:41:43;102751.16;;;-12.31;87.47
70843;BME280;58469;52.312;16.970;2024-01-10T06:44:43;102754.50;;;-12.31;87.58
70843;BME280;58469;52.312;16.970;2024-01-10T06:47:44;102748.63;;;-12.31;88.30
70843;BME280;58469;52.312;16.970;2024-01-10T06:50:44;102745.28;;;-12.33;87.09
70843;BME280;58469;52.312;16.970;2024-01-10T06:53:44;102748.66;;;-12.33;87.65
70843;BME280;58469;52.312;16.970;2024-01-10T06:56:44;102747.00;;;-12.37;88.20
70843;BME280;58469;52.312;16.970;2024-01-10T06:59:45;102751.19;;;-12.33;88.54
70843;BME280;58469;52.312;16.970;2024-01-10T07:02:45;102749.47;;;-12.29;88.31
70843;BME280;58469;52.312;16.970;2024-01-10T07:05:45;102747.78;;;-12.30;87.90
70843;BME280;58469;52.312;16.970;2024-01-10T07:08:47;102751.91;;;-12.25;87.72
70843;BME280;58469;52.312;16.970;2024-01-10T07:11:48;102740.19;;;-12.26;87.61
70843;BME280;58469;52.312;16.970;2024-01-10T07:14:49;102747.69;;;-12.23;86.96
70843;BME280;58469;52.312;16.970;2024-01-10T07:17:49;102756.09;;;-12.24;87.36
70843;BME280;58469;52.312;16.970;2024-01-10T07:20:49;102746.03;;;-12.22;87.34
70843;BME280;58469;52.312;16.970;2024-01-10T07:23:49;102731.69;;;-12.17;87.47
70843;BME280;58469;52.312;16.970;2024-01-10T07:26:50;102726.56;;;-12.09;86.29
70843;BME280;58469;52.312;16.970;2024-01-10T07:29:50;102734.88;;;-12.04;87.15
70843;BME280;58469;52.312;16.970;2024-01-10T07:32:50;102735.66;;;-11.99;86.59
70843;BME280;58469;52.312;16.970;2024-01-10T07:35:50;102740.63;;;-11.92;86.50
70843;BME280;58469;52.312;16.970;2024-01-10T07:38:51;102738.88;;;-11.87;86.00
70843;BME280;58469;52.312;16.970;2024-01-10T07:41:51;102732.88;;;-11.78;86.92
70843;BME280;58469;52.312;16.970;2024-01-10T07:44:51;102726.91;;;-11.70;85.48
70843;BME280;58469;52.312;16.970;2024-01-10T07:47:51;102718.44;;;-11.66;86.45
70843;BME280;58469;52.312;16.970;2024-01-10T07:50:52;102724.13;;;-11.55;85.95
70843;BME280;58469;52.312;16.970;2024-01-10T07:53:52;102729.81;;;-11.41;85.68
70843;BME280;58469;52.312;16.970;2024-01-10T07:56:52;102728.03;;;-11.34;86.83
70843;BME280;58469;52.312;16.970;2024-01-10T07:59:53;102731.25;;;-11.23;86.61
70843;BME280;58469;52.312;16.970;2024-01-10T08:02:53;102745.34;;;-11.10;86.73
70843;BME280;58469;52.312;16.970;2024-01-10T08:05:54;102746.09;;;-11.05;86.72
70843;BME280;58469;52.312;16.970;2024-01-10T08:08:54;102750.13;;;-10.92;87.47
70843;BME280;58469;52.312;16.970;2024-01-10T08:11:54;102757.44;;;-10.77;87.47
70843;BME280;58469;52.312;16.970;2024-01-10T08:14:54;102751.31;;;-10.64;87.75
70843;BME280;58469;52.312;16.970;2024-01-10T08:17:55;102755.47;;;-10.60;87.58
70843;BME280;58469;52.312;16.970;2024-01-10T08:20:55;102760.25;;;-10.46;87.21
70843;BME280;58469;52.312;16.970;2024-01-10T08:23:55;102764.22;;;-10.32;86.76
70843;BME280;58469;52.312;16.970;2024-01-10T08:26:55;102761.59;;;-10.27;87.47
70843;BME280;58469;52.312;16.970;2024-01-10T08:29:56;102766.44;;;-10.15;87.90
70843;BME280;58469;52.312;16.970;2024-01-10T08:32:56;102772.75;;;-9.95;88.27
70843;BME280;58469;52.312;16.970;2024-01-10T08:35:56;102769.84;;;-9.77;88.91
70843;BME280;58469;52.312;16.970;2024-01-10T08:38:56;102772.88;;;-9.61;88.21
70843;BME280;58469;52.312;16.970;2024-01-10T08:41:57;102774.25;;;-9.45;88.37
70843;BME280;58469;52.312;16.970;2024-01-10T08:44:57;102774.72;;;-9.28;87.33
70843;BME280;58469;52.312;16.970;2024-01-10T08:47:58;102770.97;;;-9.12;86.75
70843;BME280;58469;52.312;16.970;2024-01-10T08:50:58;102779.09;;;-8.99;86.57
70843;BME280;58469;52.312;16.970;2024-01-10T08:53:59;102776.31;;;-8.89;85.98
70843;BME280;58469;52.312;16.970;2024-01-10T08:56:59;102776.91;;;-8.78;86.15
70843;BME280;58469;52.312;16.970;2024-01-10T09:00:00;102772.41;;;-8.67;85.70
70843;BME280;58469;52.312;16.970;2024-01-10T09:03:00;102776.38;;;-8.57;85.89
70843;BME280;58469;52.312;16.970;2024-01-10T09:06:01;102774.31;;;-8.42;85.67
70843;BME280;58469;52.312;16.970;2024-01-10T09:09:01;102762.22;;;-8.31;85.12
70843;BME280;58469;52.312;16.970;2024-01-10T09:12:02;102761.88;;;-8.19;85.15
70843;BME280;58469;52.312;16.970;2024-01-10T09:15:02;102758.97;;;-8.06;85.20
70843;BME280;58469;52.312;16.970;2024-01-10T09:18:03;102761.97;;;-7.93;85.35
70843;BME280;58469;52.312;16.970;2024-01-10T09:21:04;102771.72;;;-7.80;85.34
70843;BME280;58469;52.312;16.970;2024-01-10T09:24:04;102763.06;;;-7.71;84.92
70843;BME280;58469;52.312;16.970;2024-01-10T09:27:04;102759.44;;;-7.63;85.70
70843;BME280;58469;52.312;16.970;2024-01-10T09:30:05;102749.88;;;-7.55;84.69
70843;BME280;58469;52.312;16.970;2024-01-10T09:33:06;102756.19;;;-7.40;85.42
70843;BME280;58469;52.312;16.970;2024-01-10T09:36:06;102753.31;;;-7.30;84.43
70843;BME280;58469;52.312;16.970;2024-01-10T09:39:06;102748.06;;;-7.23;84.25
70843;BME280;58469;52.312;16.970;2024-01-10T09:42:07;102747.81;;;-7.16;83.95
70843;BME280;58469;52.312;16.970;2024-01-10T09:45:10;102753.31;;;-7.02;84.61
70843;BME280;58469;52.312;16.970;2024-01-10T09:48:10;102743.72;;;-6.94;84.38
70843;BME280;58469;52.312;16.970;2024-01-10T09:51:12;102737.50;;;-6.84;84.00
70843;BME280;58469;52.312;16.970;2024-01-10T09:54:13;102734.50;;;-6.70;84.10
70843;BME280;58469;52.312;16.970;2024-01-10T09:57:15;102729.94;;;-6.61;84.23
70843;BME280;58469;52.312;16.970;2024-01-10T10:00:16;102734.66;;;-6.50;84.06
70843;BME280;58469;52.312;16.970;2024-01-10T10:03:17;102732.66;;;-6.42;84.21
70843;BME280;58469;52.312;16.970;2024-01-10T10:06:18;102724.69;;;-6.32;84.15
70843;BME280;58469;52.312;16.970;2024-01-10T10:09:18;102727.69;;;-6.21;84.31
70843;BME280;58469;52.312;16.970;2024-01-10T10:12:18;102725.69;;;-6.13;84.27
70843;BME280;58469;52.312;16.970;2024-01-10T10:15:23;102724.41;;;-6.01;83.69
70843;BME280;58469;52.312;16.970;2024-01-10T10:18:24;102721.59;;;-5.93;83.33
70843;BME280;58469;52.312;16.970;2024-01-10T10:21:25;102715.28;;;-5.83;82.74
70843;BME280;58469;52.312;16.970;2024-01-10T10:24:25;102711.41;;;-5.72;83.06
70843;BME280;58469;52.312;16.970;2024-01-10T10:27:26;102700.31;;;-5.69;80.70
70843;BME280;58469;52.312;16.970;2024-01-10T10:30:27;102721.00;;;-5.55;81.23
70843;BME280;58469;52.312;16.970;2024-01-10T10:33:27;102709.78;;;-5.51;78.91
70843;BME280;58469;52.312;16.970;2024-01-10T10:36:31;102705.47;;;-5.49;78.06
70843;BME280;58469;52.312;16.970;2024-01-10T10:39:32;102710.56;;;-5.49;75.52
70843;BME280;58469;52.312;16.970;2024-01-10T10:42:33;102717.84;;;-5.40;76.32
70843;BME280;58469;52.312;16.970;2024-01-10T10:45:33;102711.44;;;-5.29;78.80
70843;BME280;58469;52.312;16.970;2024-01-10T10:48:36;102711.91;;;-5.19;79.17
70843;BME280;58469;52.312;16.970;2024-01-10T10:51:36;102703.66;;;-5.26;72.87
70843;BME280;58469;52.312;16.970;2024-01-10T10:54:38;102685.03;;;-5.26;72.94
70843;BME280;58469;52.312;16.970;2024-01-10T10:57:39;102681.44;;;-5.22;73.49
70843;BME280;58469;52.312;16.970;2024-01-10T11:00:41;102683.63;;;-5.13;73.54
70843;BME280;58469;52.312;16.970;2024-01-10T11:03:42;102690.78;;;-5.01;74.97
70843;BME280;58469;52.312;16.970;2024-01-10T11:06:42;102685.31;;;-4.92;76.63
70843;BME280;58469;52.312;16.970;2024-01-10T11:09:45;102680.59;;;-4.81;76.28
70843;BME280;58469;52.312;16.970;2024-01-10T11:19:43;102658.38;;;-4.59;72.01
70843;BME280;58469;52.312;16.970;2024-01-10T11:23:09;102662.03;;;-4.44;75.31
70843;BME280;58469;52.312;16.970;2024-01-10T11:26:15;102656.31;;;-4.31;77.89
70843;BME280;58469;52.312;16.970;2024-01-10T11:29:15;102655.16;;;-4.24;78.12
70843;BME280;58469;52.312;16.970;2024-01-10T11:32:17;102656.59;;;-4.18;76.28
70843;BME280;58469;52.312;16.970;2024-01-10T11:35:20;102660.19;;;-4.22;71.58
70843;BME280;58469;52.312;16.970;2024-01-10T11:38:20;102649.69;;;-4.16;72.83
70843;BME280;58469;52.312;16.970;2024-01-10T11:41:28;102650.25;;;-4.10;71.34
70843;BME280;58469;52.312;16.970;2024-01-10T11:44:29;102650.38;;;-3.94;74.50
70843;BME280;58469;52.312;16.970;2024-01-10T11:47:29;102651.63;;;-3.84;74.48
70843;BME280;58469;52.312;16.970;2024-01-10T11:50:29;102640.59;;;-4.03;63.96
70843;BME280;58469;52.312;16.970;2024-01-10T11:53:39;102643.47;;;-3.92;70.94
70843;BME280;58469;52.312;16.970;2024-01-10T11:56:41;102643.75;;;-3.80;70.24
70843;BME280;58469;52.312;16.970;2024-01-10T11:59:42;102639.84;;;-3.70;71.98
70843;BME280;58469;52.312;16.970;2024-01-10T12:02:46;102637.03;;;-3.64;71.32
70843;BME280;58469;52.312;16.970;2024-01-10T12:05:46;102635.34;;;-3.65;68.17
70843;BME280;58469;52.312;16.970;2024-01-10T12:08:47;102629.97;;;-3.58;70.06
70843;BME280;58469;52.312;16.970;2024-01-10T12:11:48;102628.84;;;-3.53;69.67
70843;BME280;58469;52.312;16.970;2024-01-10T12:14:50;102620.81;;;-3.45;71.44
70843;BME280;58469;52.312;16.970;2024-01-10T12:17:51;102615.34;;;-3.38;71.36
70843;BME280;58469;52.312;16.970;2024-01-10T12:20:51;102605.31;;;-3.42;67.88
70843;BME280;58469;52.312;16.970;2024-01-10T12:23:52;102608.28;;;-3.33;71.62
70843;BME280;58469;52.312;16.970;2024-01-10T12:26:52;102608.78;;;-3.26;71.49
70843;BME280;58469;52.312;16.970;2024-01-10T12:29:52;102597.53;;;-3.22;71.60
70843;BME280;58469;52.312;16.970;2024-01-10T12:32:52;102597.81;;;-3.11;73.06
70843;BME280;58469;52.312;16.970;2024-01-10T12:36:22;102590.66;;;-3.05;73.60
70843;BME280;58469;52.312;16.970;2024-01-10T12:39:22;102588.84;;;-3.03;68.10
70843;BME280;58469;52.312;16.970;2024-01-10T12:42:23;102589.38;;;-2.96;70.99
70843;BME280;58469;52.312;16.970;2024-01-10T12:45:24;102580.56;;;-2.91;73.39
70843;BME280;58469;52.312;16.970;2024-01-10T12:48:24;102582.16;;;-2.88;71.45
70843;BME280;58469;52.312;16.970;2024-01-10T12:51:24;102579.50;;;-2.87;71.52
70843;BME280;58469;52.312;16.970;2024-01-10T12:54:24;102581.69;;;-2.96;63.38
70843;BME280;58469;52.312;16.970;2024-01-10T12:57:25;102587.34;;;-2.90;69.24
70843;BME280;58469;52.312;16.970;2024-01-10T13:00:25;102579.34;;;-2.84;72.89
70843;BME280;58469;52.312;16.970;2024-01-10T13:03:25;102580.09;;;-2.82;70.67
70843;BME280;58469;52.312;16.970;2024-01-10T13:06:26;102578.22;;;-2.78;69.73
70843;BME280;58469;52.312;16.970;2024-01-10T13:09:26;102571.41;;;-2.79;69.19
70843;BME280;58469;52.312;16.970;2024-01-10T13:12:26;102577.13;;;-2.74;70.85
70843;BME280;58469;52.312;16.970;2024-01-10T13:15:26;102576.25;;;-2.73;71.60
70843;BME280;58469;52.312;16.970;2024-01-10T13:18:27;102566.75;;;-2.71;72.83
70843;BME280;58469;52.312;16.970;2024-01-10T13:21:27;102573.25;;;-2.81;64.33
70843;BME280;58469;52.312;16.970;2024-01-10T13:24:28;102573.56;;;-2.87;63.49
70843;BME280;58469;52.312;16.970;2024-01-10T13:27:28;102569.19;;;-2.85;64.18
70843;BME280;58469;52.312;16.970;2024-01-10T13:30:28;102565.50;;;-2.80;67.96
70843;BME280;58469;52.312;16.970;2024-01-10T13:33:28;102560.47;;;-2.81;65.43
70843;BME280;58469;52.312;16.970;2024-01-10T13:36:29;102551.97;;;-2.82;68.50
70843;BME280;58469;52.312;16.970;2024-01-10T13:39:29;102547.81;;;-2.84;67.09
70843;BME280;58469;52.312;16.970;2024-01-10T13:42:29;102549.56;;;-2.85;66.30
70843;BME280;58469;52.312;16.970;2024-01-10T13:45:30;102547.06;;;-2.86;64.89
70843;BME280;58469;52.312;16.970;2024-01-10T13:48:30;102548.06;;;-2.89;64.19
70843;BME280;58469;52.312;16.970;2024-01-10T13:51:30;102553.19;;;-2.89;66.83
70843;BME280;58469;52.312;16.970;2024-01-10T13:54:31;102555.97;;;-2.93;64.70
70843;BME280;58469;52.312;16.970;2024-01-10T13:57:32;102551.75;;;-2.94;63.89
70843;BME280;58469;52.312;16.970;2024-01-10T14:00:32;102550.88;;;-2.93;65.82
70843;BME280;58469;52.312;16.970;2024-01-10T14:03:32;102550.03;;;-2.94;67.90
70843;BME280;58469;52.312;16.970;2024-01-10T14:06:33;102543.41;;;-2.98;65.60
70843;BME280;58469;52.312;16.970;2024-01-10T14:09:33;102536.56;;;-2.97;67.05
70843;BME280;58469;52.312;16.970;2024-01-10T14:12:33;102539.31;;;-3.00;67.26
70843;BME280;58469;52.312;16.970;2024-01-10T14:15:33;102543.75;;;-3.04;68.62
70843;BME280;58469;52.312;16.970;2024-01-10T14:18:34;102531.13;;;-3.07;68.19
70843;BME280;58469;52.312;16.970;2024-01-10T14:21:34;102527.22;;;-3.14;67.56
70843;BME280;58469;52.312;16.970;2024-01-10T14:24:34;102523.16;;;-3.18;69.51
70843;BME280;58469;52.312;16.970;2024-01-10T14:27:35;102519.94;;;-3.21;71.23
70843;BME280;58469;52.312;16.970;2024-01-10T14:30:35;102511.66;;;-3.26;71.49
70843;BME280;58469;52.312;16.970;2024-01-10T14:33:36;102516.19;;;-3.31;71.74
70843;BME280;58469;52.312;16.970;2024-01-10T14:36:39;102513.41;;;-3.44;67.89
70843;BME280;58469;52.312;16.970;2024-01-10T14:39:39;102516.97;;;-3.46;67.71
70843;BME280;58469;52.312;16.970;2024-01-10T14:42:40;102525.50;;;-3.47;71.33
70843;BME280;58469;52.312;16.970;2024-01-10T14:45:40;102520.63;;;-3.52;68.47
70843;BME280;58469;52.312;16.970;2024-01-10T14:48:40;102518.25;;;-3.55;69.26
70843;BME280;58469;52.312;16.970;2024-01-10T14:51:40;102526.88;;;-3.58;69.19
70843;BME280;58469;52.312;16.970;2024-01-10T14:54:42;102529.75;;;-3.64;68.75
70843;BME280;58469;52.312;16.970;2024-01-10T14:57:42;102524.84;;;-3.68;67.96
70843;BME280;58469;52.312;16.970;2024-01-10T15:00:43;102533.41;;;-3.69;69.38
70843;BME280;58469;52.312;16.970;2024-01-10T15:03:43;102520.19;;;-3.77;71.38
70843;BME280;58469;52.312;16.970;2024-01-10T15:06:47;102527.47;;;-3.87;70.13
70843;BME280;58469;52.312;16.970;2024-01-10T15:09:47;102533.75;;;-3.94;71.58
70843;BME280;58469;52.312;16.970;2024-01-10T15:12:47;102540.19;;;-4.04;68.85
70843;BME280;58469;52.312;16.970;2024-01-10T15:15:47;102541.38;;;-4.11;69.12
70843;BME280;58469;52.312;16.970;2024-01-10T15:18:48;102551.81;;;-4.15;69.13
70843;BME280;58469;52.312;16.970;2024-01-10T15:21:48;102544.44;;;-4.21;68.63
70843;BME280;58469;52.312;16.970;2024-01-10T15:24:48;102549.69;;;-4.24;67.25
70843;BME280;58469;52.312;16.970;2024-01-10T15:27:48;102542.16;;;-4.27;68.50
70843;BME280;58469;52.312;16.970;2024-01-10T15:30:49;102537.16;;;-4.29;68.59
70843;BME280;58469;52.312;16.970;2024-01-10T15:33:49;102532.31;;;-4.35;68.32